sensor_id;sensor_type;location;lat;lon;timestamp;pressure;altitude;pressure_sealevel;temperature;humidity
56084;BME280;41958;52.416;13.428;2023-02-21T00:02:21;67213.91;;;-149.09;100.00
56084;BME280;41958;52.416;13.428;2023-02-21T00:06:06;67213.91;;;-149.09;100.00
56084;BME280;41958;52.416;13.428;2023-02-21T00:09:48;67213.91;;;-149.09;100.00
56084;BME280;41958;52.416;13.428;2023-02-21T00:13:34;67213.91;;;-149.09;100.00
56084;BME280;41958;52.416;13.428;2023-02-21T00:17:16;67213.91;;;-149.09;100.00
56084;BME280;41958;52.416;13.428;2023-02-21T00:20:59;67213.91;;;-149.09;100.00
56084;BME280;41958;52.416;13.428;2023-02-21T00:24:41;67213.91;;;-149.09;100.00
56084;BME280;41958;52.416;13.428;2023-02-21T00:28:23;67213.91;;;-149.09;100.00
56084;BME280;41958;52.416;13.428;2023-02-21T00:32:05;67213.91;;;-149.09;100.00
56084;BME280;41958;52.416;13.428;2023-02-21T00:35:48;67213.91;;;-149.09;100.00
56084;BME280;41958;52.416;13.428;2023-02-21T00:39:30;67213.91;;;-149.09;100.00
56084;BME280;41958;52.416;13.428;2023-02-21T00:43:12;67213.91;;;-149.09;100.00
56084;BME280;41958;52.416;13.428;2023-02-21T00:46:55;67213.91;;;-149.09;100.00
56084;BME280;41958;52.416;13.428;2023-02-21T00:50:37;67213.91;;;-149.09;100.00
56084;BME280;41958;52.416;13.428;2023-02-21T00:54:21;67213.91;;;-149.09;100.00
56084;BME280;41958;52.416;13.428;2023-02-21T00:58:03;67213.91;;;-149.09;100.00
56084;BME280;41958;52.416;13.428;2023-02-21T01:01:45;67213.91;;;-149.09;100.00
56084;BME280;41958;52.416;13.428;2023-02-21T01:05:28;67213.91;;;-149.09;100.00
56084;BME280;41958;52.416;13.428;2023-02-21T01:09:10;67213.91;;;-149.09;100.00
56084;BME280;41958;52.416;13.428;2023-02-21T01:12:53;67213.91;;;-149.09;100.00
56084;BME280;41958;52.416;13.428;2023-02-21T01:16:35;67213.91;;;-149.09;100.00
56084;BME280;41958;52.416;13.428;2023-02-21T01:19:20;100356.34;;;9.91;100.00
56084;BME280;41958;52.416;13.428;2023-02-21T01:23:02;67213.91;;;-149.09;100.00
56084;BME280;41958;52.416;13.428;2023-02-21T01:26:45;67213.91;;;-149.09;100.00
56084;BME280;41958;52.416;13.428;2023-02-21T01:30:27;67213.91;;;-149.09;100.00
56084;BME280;41958;52.416;13.428;2023-02-21T01:34:09;67213.91;;;-149.09;100.00
56084;BME280;41958;52.416;13.428;2023-02-21T01:37:52;67213.91;;;-149.09;100.00
56084;BME280;41958;52.416;13.428;2023-02-21T01:41:37;67213.91;;;-149.09;100.00
56084;BME280;41958;52.416;13.428;2023-02-21T01:45:42;67213.91;;;-149.09;100.00
56084;BME280;41958;52.416;13.428;2023-02-21T01:49:26;67213.91;;;-149.09;100.00
56084;BME280;41958;52.416;13.428;2023-02-21T01:53:11;67213.91;;;-149.09;100.00
56084;BME280;41958;52.416;13.428;2023-02-21T01:56:55;67213.91;;;-149.09;100.00
56084;BME280;41958;52.416;13.428;2023-02-21T02:00:38;67213.91;;;-149.09;100.00
56084;BME280;41958;52.416;13.428;2023-02-21T02:04:21;67213.91;;;-149.09;100.00
56084;BME280;41958;52.416;13.428;2023-02-21T02:08:04;67213.91;;;-149.09;100.00
56084;BME280;41958;52.416;13.428;2023-02-21T02:26:53;67213.91;;;-149.09;100.00
56084;BME280;41958;52.416;13.428;2023-02-21T02:30:33;67213.91;;;-149.09;100.00
56084;BME280;41958;52.416;13.428;2023-02-21T02:34:27;67213.91;;;-149.09;100.00
56084;BME280;41958;52.416;13.428;2023-02-21T02:38:05;67213.91;;;-149.09;100.00
56084;BME280;41958;52.416;13.428;2023-02-21T02:41:48;67213.91;;;-149.09;100.00
56084;BME280;41958;52.416;13.428;2023-02-21T02:45:21;67213.91;;;-149.09;100.00
56084;BME280;41958;52.416;13.428;2023-02-21T02:48:56;67213.91;;;-149.09;100.00
56084;BME280;41958;52.416;13.428;2023-02-21T02:52:23;67213.91;;;-149.09;100.00
56084;BME280;41958;52.416;13.428;2023-02-21T02:56:03;67213.91;;;-149.09;100.00
56084;BME280;41958;52.416;13.428;2023-02-21T02:59:29;67213.91;;;-149.09;100.00
56084;BME280;41958;52.416;13.428;2023-02-21T03:03:24;67213.91;;;-149.09;100.00
56084;BME280;41958;52.416;13.428;2023-02-21T03:07:29;67213.91;;;-149.09;100.00
56084;BME280;41958;52.416;13.428;2023-02-21T03:11:11;67213.91;;;-149.09;100.00
56084;BME280;41958;52.416;13.428;2023-02-21T03:14:49;67213.91;;;-149.09;100.00
56084;BME280;41958;52.416;13.428;2023-02-21T03:18:12;67213.91;;;-149.09;89.33
56084;BME280;41958;52.416;13.428;2023-02-21T03:22:22;67213.91;;;-149.09;100.00
56084;BME280;41958;52.416;13.428;2023-02-21T03:25:26;67213.91;;;-149.09;100.00
56084;BME280;41958;52.416;13.428;2023-02-21T03:28:51;67213.91;;;-149.09;100.00
56084;BME280;41958;52.416;13.428;2023-02-21T03:32:26;67213.91;;;-149.09;100.00
56084;BME280;41958;52.416;13.428;2023-02-21T03:35:52;67213.91;;;-149.09;100.00
56084;BME280;41958;52.416;13.428;2023-02-21T03:39:16;67213.91;;;-149.09;100.00
56084;BME280;41958;52.416;13.428;2023-02-21T03:42:40;67213.91;;;-149.09;100.00
56084;BME280;41958;52.416;13.428;2023-02-21T03:46:04;67213.91;;;-149.09;100.00
56084;BME280;41958;52.416;13.428;2023-02-21T03:49:27;67213.91;;;-149.09;100.00
56084;BME280;41958;52.416;13.428;2023-02-21T03:52:51;67213.91;;;-149.09;100.00
56084;BME280;41958;52.416;13.428;2023-02-21T03:56:15;67213.91;;;-149.09;100.00
56084;BME280;41958;52.416;13.428;2023-02-21T03:59:39;67213.91;;;-149.09;100.00
56084;BME280;41958;52.416;13.428;2023-02-21T04:03:02;67213.91;;;-149.09;100.00
56084;BME280;41958;52.416;13.428;2023-02-21T04:06:26;67213.91;;;-149.09;100.00
56084;BME280;41958;52.416;13.428;2023-02-21T04:08:56;100356.34;;;9.91;100.00
56084;BME280;41958;52.416;13.428;2023-02-21T04:12:20;67213.91;;;-149.09;100.00
56084;BME280;41958;52.416;13.428;2023-02-21T04:15:45;67213.91;;;-149.09;100.00
56084;BME280;41958;52.416;13.428;2023-02-21T04:19:09;67213.91;;;-149.09;100.00
56084;BME280;41958;52.416;13.428;2023-02-21T04:22:33;67213.91;;;-149.09;100.00
56084;BME280;41958;52.416;13.428;2023-02-21T04:25:56;67213.91;;;-149.09;100.00
56084;BME280;41958;52.416;13.428;2023-02-21T04:29:20;67213.91;;;-149.09;100.00
56084;BME280;41958;52.416;13.428;2023-02-21T04:32:27;100356.34;;;9.91;100.00
56084;BME280;41958;52.416;13.428;2023-02-21T04:35:50;67213.91;;;-149.09;100.00
56084;BME280;41958;52.416;13.428;2023-02-21T04:39:14;67213.91;;;-149.09;100.00
56084;BME280;41958;52.416;13.428;2023-02-21T04:42:38;67213.91;;;-149.09;100.00
56084;BME280;41958;52.416;13.428;2023-02-21T04:46:02;67213.91;;;-149.09;100.00
56084;BME280;41958;52.416;13.428;2023-02-21T04:49:26;67213.91;;;-149.09;100.00
56084;BME280;41958;52.416;13.428;2023-02-21T04:52:50;67213.91;;;-149.09;100.00
56084;BME280;41958;52.416;13.428;2023-02-21T04:56:14;67213.91;;;-149.09;100.00
56084;BME280;41958;52.416;13.428;2023-02-21T04:59:39;67213.91;;;-149.09;100.00
56084;BME280;41958;52.416;13.428;2023-02-21T05:03:04;67213.91;;;-149.09;100.00
56084;BME280;41958;52.416;13.428;2023-02-21T05:06:28;67213.91;;;-149.09;100.00
56084;BME280;41958;52.416;13.428;2023-02-21T05:09:52;67213.91;;;-149.09;100.00
56084;BME280;41958;52.416;13.428;2023-02-21T05:13:16;67213.91;;;-149.09;100.00
56084;BME280;41958;52.416;13.428;2023-02-21T05:16:40;67213.91;;;-149.09;100.00
56084;BME280;41958;52.416;13.428;2023-02-21T05:20:04;67213.91;;;-149.09;100.00
56084;BME280;41958;52.416;13.428;2023-02-21T05:23:30;67213.91;;;-149.09;100.00
56084;BME280;41958;52.416;13.428;2023-02-21T05:27:09;67213.91;;;-149.09;100.00
56084;BME280;41958;52.416;13.428;2023-02-21T05:30:34;67213.91;;;-149.09;100.00
56084;BME280;41958;52.416;13.428;2023-02-21T05:32:59;100537.69;;;9.51;100.00
56084;BME280;41958;52.416;13.428;2023-02-21T05:35:25;100528.16;;;9.52;100.00
56084;BME280;41958;52.416;13.428;2023-02-21T05:37:50;100536.09;;;9.62;100.00
56084;BME280;41958;52.416;13.428;2023-02-21T05:40:15;100535.97;;;9.58;100.00
56084;BME280;41958;52.416;13.428;2023-02-21T05:43:41;67213.91;;;-149.09;100.00
56084;BME280;41958;52.416;13.428;2023-02-21T05:47:05;67213.91;;;-149.09;100.00
56084;BME280;41958;52.416;13.428;2023-02-21T05:50:30;67213.91;;;-149.09;100.00
56084;BME280;41958;52.416;13.428;2023-02-21T05:53:54;67213.91;;;-149.09;100.00
56084;BME280;41958;52.416;13.428;2023-02-21T05:57:19;67213.91;;;-149.09;100.00
56084;BME280;41958;52.416;13.428;2023-02-21T06:00:42;67213.91;;;-149.09;100.00
56084;BME280;41958;52.416;13.428;2023-02-21T06:04:06;67213.91;;;-149.09;100.00
56084;BME280;41958;52.416;13.428;2023-02-21T06:07:33;67213.91;;;-149.09;100.00
56084;BME280;41958;52.416;13.428;2023-02-21T06:10:57;67213.91;;;-149.09;100.00
56084;BME280;41958;52.416;13.428;2023-02-21T06:14:21;67213.91;;;-149.09;100.00
56084;BME280;41958;52.416;13.428;2023-02-21T06:17:44;67213.91;;;-149.09;100.00
56084;BME280;41958;52.416;13.428;2023-02-21T06:21:10;67213.91;;;-149.09;100.00
56084;BME280;41958;52.416;13.428;2023-02-21T06:24:34;67213.91;;;-149.09;100.00
56084;BME280;41958;52.416;13.428;2023-02-21T06:27:58;67213.91;;;-149.09;100.00
56084;BME280;41958;52.416;13.428;2023-02-21T06:31:22;67213.91;;;-149.09;100.00
56084;BME280;41958;52.416;13.428;2023-02-21T06:34:08;100535.97;;;9.58;100.00
56084;BME280;41958;52.416;13.428;2023-02-21T06:36:34;100600.84;;;9.22;100.00
56084;BME280;41958;52.416;13.428;2023-02-21T06:38:59;100607.03;;;9.27;100.00
56084;BME280;41958;52.416;13.428;2023-02-21T06:42:24;67213.91;;;-149.09;100.00
56084;BME280;41958;52.416;13.428;2023-02-21T06:45:48;67213.91;;;-149.09;100.00
56084;BME280;41958;52.416;13.428;2023-02-21T06:49:13;67213.91;;;-149.09;100.00
56084;BME280;41958;52.416;13.428;2023-02-21T06:52:38;67213.91;;;-149.09;100.00
56084;BME280;41958;52.416;13.428;2023-02-21T06:56:03;67213.91;;;-149.09;100.00
56084;BME280;41958;52.416;13.428;2023-02-21T06:59:30;67213.91;;;-149.09;100.00
56084;BME280;41958;52.416;13.428;2023-02-21T07:02:54;67213.91;;;-149.09;100.00
56084;BME280;41958;52.416;13.428;2023-02-21T07:06:17;67213.91;;;-149.09;100.00
56084;BME280;41958;52.416;13.428;2023-02-21T07:09:41;67213.91;;;-149.09;100.00
56084;BME280;41958;52.416;13.428;2023-02-21T07:13:05;67213.91;;;-149.09;100.00
56084;BME280;41958;52.416;13.428;2023-02-21T07:16:29;67213.91;;;-149.09;100.00
56084;BME280;41958;52.416;13.428;2023-02-21T07:19:53;67213.91;;;-149.09;100.00
56084;BME280;41958;52.416;13.428;2023-02-21T07:23:16;67213.91;;;-149.09;100.00
56084;BME280;41958;52.416;13.428;2023-02-21T07:26:40;67213.91;;;-149.09;100.00
56084;BME280;41958;52.416;13.428;2023-02-21T07:30:04;67213.91;;;-149.09;100.00
56084;BME280;41958;52.416;13.428;2023-02-21T07:33:28;67213.91;;;-149.09;100.00
56084;BME280;41958;52.416;13.428;2023-02-21T07:36:52;67213.91;;;-149.09;100.00
56084;BME280;41958;52.416;13.428;2023-02-21T07:40:16;67213.91;;;-149.09;100.00
56084;BME280;41958;52.416;13.428;2023-02-21T07:43:40;67213.91;;;-149.09;100.00
56084;BME280;41958;52.416;13.428;2023-02-21T07:47:08;67213.91;;;-149.09;100.00
56084;BME280;41958;52.416;13.428;2023-02-21T07:50:35;67213.91;;;-149.09;100.00
56084;BME280;41958;52.416;13.428;2023-02-21T07:53:58;67213.91;;;-149.09;100.00
56084;BME280;41958;52.416;13.428;2023-02-21T07:57:22;67213.91;;;-149.09;100.00
56084;BME280;41958;52.416;13.428;2023-02-21T08:00:46;67213.91;;;-149.09;100.00
56084;BME280;41958;52.416;13.428;2023-02-21T08:04:10;67213.91;;;-149.09;100.00
56084;BME280;41958;52.416;13.428;2023-02-21T08:07:35;67213.91;;;-149.09;100.00
56084;BME280;41958;52.416;13.428;2023-02-21T08:10:59;67213.91;;;-149.09;100.00
56084;BME280;41958;52.416;13.428;2023-02-21T08:14:23;67213.91;;;-149.09;100.00
56084;BME280;41958;52.416;13.428;2023-02-21T08:17:47;67213.91;;;-149.09;100.00
56084;BME280;41958;52.416;13.428;2023-02-21T08:21:12;67213.91;;;-149.09;100.00
56084;BME280;41958;52.416;13.428;2023-02-21T08:24:35;67213.91;;;-149.09;100.00
56084;BME280;41958;52.416;13.428;2023-02-21T08:27:59;67213.91;;;-149.09;100.00
56084;BME280;41958;52.416;13.428;2023-02-21T08:31:23;67213.91;;;-149.09;100.00
56084;BME280;41958;52.416;13.428;2023-02-21T08:34:47;67213.91;;;-149.09;100.00
56084;BME280;41958;52.416;13.428;2023-02-21T08:38:11;67213.91;;;-149.09;100.00
56084;BME280;41958;52.416;13.428;2023-02-21T08:41:39;67213.91;;;-149.09;100.00
56084;BME280;41958;52.416;13.428;2023-02-21T08:45:05;67213.91;;;-149.09;100.00
56084;BME280;41958;52.416;13.428;2023-02-21T08:48:31;67213.91;;;-149.09;100.00
56084;BME280;41958;52.416;13.428;2023-02-21T08:51:55;67213.91;;;-149.09;100.00
56084;BME280;41958;52.416;13.428;2023-02-21T08:55:19;67213.91;;;-149.09;100.00
56084;BME280;41958;52.416;13.428;2023-02-21T08:58:45;67213.91;;;-149.09;100.00
56084;BME280;41958;52.416;13.428;2023-02-21T09:02:16;67213.91;;;-149.09;100.00
56084;BME280;41958;52.416;13.428;2023-02-21T09:05:40;67213.91;;;-149.09;100.00
56084;BME280;41958;52.416;13.428;2023-02-21T09:09:04;67213.91;;;-149.09;100.00
56084;BME280;41958;52.416;13.428;2023-02-21T09:12:28;67213.91;;;-149.09;100.00
56084;BME280;41958;52.416;13.428;2023-02-21T09:15:51;67213.91;;;-149.09;100.00
56084;BME280;41958;52.416;13.428;2023-02-21T09:19:15;67213.91;;;-149.09;100.00
56084;BME280;41958;52.416;13.428;2023-02-21T09:22:43;67213.91;;;-149.09;100.00
56084;BME280;41958;52.416;13.428;2023-02-21T09:26:07;67213.91;;;-149.09;100.00
56084;BME280;41958;52.416;13.428;2023-02-21T09:29:32;67213.91;;;-149.09;100.00
56084;BME280;41958;52.416;13.428;2023-02-21T09:32:56;67213.91;;;-149.09;100.00
56084;BME280;41958;52.416;13.428;2023-02-21T09:36:21;67213.91;;;-149.09;100.00
56084;BME280;41958;52.416;13.428;2023-02-21T09:39:47;67213.91;;;-149.09;100.00
56084;BME280;41958;52.416;13.428;2023-02-21T09:43:20;67213.91;;;-149.09;100.00
56084;BME280;41958;52.416;13.428;2023-02-21T09:46:51;67213.91;;;-149.09;100.00
56084;BME280;41958;52.416;13.428;2023-02-21T09:50:22;67213.91;;;-149.09;100.00
56084;BME280;41958;52.416;13.428;2023-02-21T09:53:50;67213.91;;;-149.09;100.00
56084;BME280;41958;52.416;13.428;2023-02-21T09:57:24;67213.91;;;-149.09;100.00
56084;BME280;41958;52.416;13.428;2023-02-21T10:00:48;67213.91;;;-149.09;100.00
56084;BME280;41958;52.416;13.428;2023-02-21T10:08:39;67213.91;;;-149.09;100.00
56084;BME280;41958;52.416;13.428;2023-02-21T10:12:33;67213.91;;;-149.09;100.00
56084;BME280;41958;52.416;13.428;2023-02-21T10:16:25;67213.91;;;-149.09;100.00
56084;BME280;41958;52.416;13.428;2023-02-21T10:20:02;67213.91;;;-149.09;100.00
56084;BME280;41958;52.416;13.428;2023-02-21T10:23:37;67213.91;;;-149.09;100.00
56084;BME280;41958;52.416;13.428;2023-02-21T10:27:15;67213.91;;;-149.09;100.00
56084;BME280;41958;52.416;13.428;2023-02-21T10:30:54;67213.91;;;-149.09;100.00
56084;BME280;41958;52.416;13.428;2023-02-21T10:34:21;67213.91;;;-149.09;100.00
56084;BME280;41958;52.416;13.428;2023-02-21T10:37:53;67213.91;;;-149.09;100.00
56084;BME280;41958;52.416;13.428;2023-02-21T10:41:48;67213.91;;;-149.09;100.00
56084;BME280;41958;52.416;13.428;2023-02-21T10:45:23;67213.91;;;-149.09;100.00
56084;BME280;41958;52.416;13.428;2023-02-21T10:48:54;67213.91;;;-149.09;100.00
56084;BME280;41958;52.416;13.428;2023-02-21T10:52:28;67213.91;;;-149.09;100.00
56084;BME280;41958;52.416;13.428;2023-02-21T10:59:42;67213.91;;;-149.09;100.00
56084;BME280;41958;52.416;13.428;2023-02-21T11:03:24;67213.91;;;-149.09;100.00
56084;BME280;41958;52.416;13.428;2023-02-21T11:06:56;67213.91;;;-149.09;100.00
56084;BME280;41958;52.416;13.428;2023-02-21T11:10:29;67213.91;;;-149.09;100.00
56084;BME280;41958;52.416;13.428;2023-02-21T11:14:20;67213.91;;;-149.09;100.00
56084;BME280;41958;52.416;13.428;2023-02-21T11:18:03;67213.91;;;-149.09;100.00
56084;BME280;41958;52.416;13.428;2023-02-21T11:21:26;67213.91;;;-149.09;100.00
56084;BME280;41958;52.416;13.428;2023-02-21T11:24:57;67213.91;;;-149.09;100.00
56084;BME280;41958;52.416;13.428;2023-02-21T11:28:24;67213.91;;;-149.09;100.00
56084;BME280;41958;52.416;13.428;2023-02-21T11:32:07;67213.91;;;-149.09;100.00
56084;BME280;41958;52.416;13.428;2023-02-21T11:35:43;67213.91;;;-149.09;100.00
56084;BME280;41958;52.416;13.428;2023-02-21T11:39:33;67213.91;;;-149.09;100.00
56084;BME280;41958;52.416;13.428;2023-02-21T11:46:46;67213.91;;;-149.09;100.00
56084;BME280;41958;52.416;13.428;2023-02-21T11:50:29;67213.91;;;-149.09;100.00
56084;BME280;41958;52.416;13.428;2023-02-21T11:54:02;67213.91;;;-149.09;100.00
56084;BME280;41958;52.416;13.428;2023-02-21T11:57:57;67213.91;;;-149.09;100.00
56084;BME280;41958;52.416;13.428;2023-02-21T12:01:55;67213.91;;;-149.09;100.00
56084;BME280;41958;52.416;13.428;2023-02-21T12:09:41;67213.91;;;-149.09;100.00
56084;BME280;41958;52.416;13.428;2023-02-21T12:13:19;67213.91;;;-149.09;100.00
56084;BME280;41958;52.416;13.428;2023-02-21T12:17:20;67213.91;;;-149.09;100.00
56084;BME280;41958;52.416;13.428;2023-02-21T12:21:15;67213.91;;;-149.09;100.00
56084;BME280;41958;52.416;13.428;2023-02-21T12:25:02;67213.91;;;-149.09;100.00
56084;BME280;41958;52.416;13.428;2023-02-21T12:28:45;67213.91;;;-149.09;100.00
56084;BME280;41958;52.416;13.428;2023-02-21T12:32:24;67213.91;;;-149.09;100.00
56084;BME280;41958;52.416;13.428;2023-02-21T12:39:52;67213.91;;;-149.09;100.00
56084;BME280;41958;52.416;13.428;2023-02-21T12:43:54;67213.91;;;-149.09;100.00
56084;BME280;41958;52.416;13.428;2023-02-21T12:47:44;67213.91;;;-149.09;100.00
56084;BME280;41958;52.416;13.428;2023-02-21T12:51:16;67213.91;;;-149.09;100.00
56084;BME280;41958;52.416;13.428;2023-02-21T12:58:22;67213.91;;;-149.09;100.00
56084;BME280;41958;52.416;13.428;2023-02-21T13:01:58;67213.91;;;-149.09;100.00
56084;BME280;41958;52.416;13.428;2023-02-21T13:05:41;67213.91;;;-149.09;100.00
56084;BME280;41958;52.416;13.428;2023-02-21T13:09:29;67213.91;;;-149.09;100.00
56084;BME280;41958;52.416;13.428;2023-02-21T13:13:10;67213.91;;;-149.09;100.00
56084;BME280;41958;52.416;13.428;2023-02-21T13:16:38;67213.91;;;-149.09;100.00
56084;BME280;41958;52.416;13.428;2023-02-21T13:20:06;67213.91;;;-149.09;100.00
56084;BME280;41958;52.416;13.428;2023-02-21T13:31:18;67213.91;;;-149.09;100.00
56084;BME280;41958;52.416;13.428;2023-02-21T13:34:59;67213.91;;;-149.09;100.00
56084;BME280;41958;52.416;13.428;2023-02-21T13:38:26;67213.91;;;-149.09;100.00
56084;BME280;41958;52.416;13.428;2023-02-21T13:42:15;67213.91;;;-149.09;100.00
56084;BME280;41958;52.416;13.428;2023-02-21T13:45:41;67213.91;;;-149.09;100.00
56084;BME280;41958;52.416;13.428;2023-02-21T13:53:32;67213.91;;;-149.09;100.00
56084;BME280;41958;52.416;13.428;2023-02-21T13:56:40;67213.91;;;-149.09;100.00
56084;BME280;41958;52.416;13.428;2023-02-21T14:03:52;67213.91;;;-149.09;100.00
56084;BME280;41958;52.416;13.428;2023-02-21T14:07:17;67213.91;;;-149.09;100.00
56084;BME280;41958;52.416;13.428;2023-02-21T14:10:47;67213.91;;;-149.09;100.00
56084;BME280;41958;52.416;13.428;2023-02-21T14:14:24;67213.91;;;-149.09;100.00
56084;BME280;41958;52.416;13.428;2023-02-21T14:17:55;67213.91;;;-149.09;100.00
56084;BME280;41958;52.416;13.428;2023-02-21T14:25:16;67213.91;;;-149.09;100.00
56084;BME280;41958;52.416;13.428;2023-02-21T14:32:43;67213.91;;;-149.09;100.00
56084;BME280;41958;52.416;13.428;2023-02-21T14:36:15;67213.91;;;-149.09;100.00
56084;BME280;41958;52.416;13.428;2023-02-21T14:39:43;67213.91;;;-149.09;100.00
56084;BME280;41958;52.416;13.428;2023-02-21T14:46:46;67213.91;;;-149.09;100.00
56084;BME280;41958;52.416;13.428;2023-02-21T14:50:23;67213.91;;;-149.09;100.00
56084;BME280;41958;52.416;13.428;2023-02-21T15:08:42;67213.91;;;-149.09;100.00
56084;BME280;41958;52.416;13.428;2023-02-21T15:12:16;67213.91;;;-149.09;100.00
56084;BME280;41958;52.416;13.428;2023-02-21T15:15:45;67213.91;;;-149.09;100.00
56084;BME280;41958;52.416;13.428;2023-02-21T15:23:16;67213.91;;;-149.09;100.00
56084;BME280;41958;52.416;13.428;2023-02-21T15:26:50;67213.91;;;-149.09;100.00
56084;BME280;41958;52.416;13.428;2023-02-21T15:30:31;67213.91;;;-149.09;100.00
56084;BME280;41958;52.416;13.428;2023-02-21T15:34:12;67213.91;;;-149.09;100.00
56084;BME280;41958;52.416;13.428;2023-02-21T15:37:40;67213.91;;;-149.09;100.00
56084;BME280;41958;52.416;13.428;2023-02-21T15:40:18;100862.56;;;11.00;70.13
56084;BME280;41958;52.416;13.428;2023-02-21T15:42:45;100869.56;;;10.93;70.97
56084;BME280;41958;52.416;13.428;2023-02-21T15:45:43;100870.03;;;10.83;70.85
56084;BME280;41958;52.416;13.428;2023-02-21T15:48:08;100866.28;;;10.79;71.29
56084;BME280;41958;52.416;13.428;2023-02-21T15:50:52;100868.50;;;10.73;70.95
56084;BME280;41958;52.416;13.428;2023-02-21T15:53:21;100875.03;;;10.90;70.64
56084;BME280;41958;52.416;13.428;2023-02-21T15:55:49;100878.53;;;10.74;71.22
56084;BME280;41958;52.416;13.428;2023-02-21T16:00:46;100887.25;;;10.73;71.31
56084;BME280;41958;52.416;13.428;2023-02-21T16:03:32;100884.56;;;10.64;71.75
56084;BME280;41958;52.416;13.428;2023-02-21T16:06:23;100882.56;;;10.65;71.65
56084;BME280;41958;52.416;13.428;2023-02-21T16:14:42;100889.91;;;10.57;72.46
56084;BME280;41958;52.416;13.428;2023-02-21T16:17:34;100893.00;;;10.43;73.07
56084;BME280;41958;52.416;13.428;2023-02-21T16:20:01;100896.16;;;10.41;72.30
56084;BME280;41958;52.416;13.428;2023-02-21T16:22:38;100883.69;;;10.39;72.21
56084;BME280;41958;52.416;13.428;2023-02-21T16:25:15;100898.94;;;10.41;71.09
56084;BME280;41958;52.416;13.428;2023-02-21T16:27:44;100898.94;;;10.41;70.98
56084;BME280;41958;52.416;13.428;2023-02-21T16:30:14;100904.00;;;10.27;72.21
56084;BME280;41958;52.416;13.428;2023-02-21T16:32:44;100894.94;;;10.30;72.36
56084;BME280;41958;52.416;13.428;2023-02-21T16:35:21;100899.78;;;10.21;72.92
56084;BME280;41958;52.416;13.428;2023-02-21T16:37:48;100910.00;;;10.17;72.77
56084;BME280;41958;52.416;13.428;2023-02-21T16:40:16;100905.91;;;10.14;72.97
56084;BME280;41958;52.416;13.428;2023-02-21T16:42:50;100911.09;;;10.03;73.17
56084;BME280;41958;52.416;13.428;2023-02-21T16:45:15;100910.31;;;10.03;72.92
56084;BME280;41958;52.416;13.428;2023-02-21T16:47:41;100922.28;;;10.03;72.81
56084;BME280;41958;52.416;13.428;2023-02-21T16:50:34;100925.16;;;9.94;73.47
56084;BME280;41958;52.416;13.428;2023-02-21T16:53:00;100929.44;;;9.92;73.42
56084;BME280;41958;52.416;13.428;2023-02-21T16:55:26;100922.31;;;9.82;74.16
56084;BME280;41958;52.416;13.428;2023-02-21T16:57:56;100929.72;;;9.78;74.44
56084;BME280;41958;52.416;13.428;2023-02-21T17:00:23;100932.84;;;9.76;74.33
56084;BME280;41958;52.416;13.428;2023-02-21T17:02:49;100930.72;;;9.73;74.69
56084;BME280;41958;52.416;13.428;2023-02-21T17:05:15;100936.72;;;9.63;75.24
56084;BME280;41958;52.416;13.428;2023-02-21T17:07:41;100939.22;;;9.56;75.42
56084;BME280;41958;52.416;13.428;2023-02-21T17:10:07;100940.84;;;9.57;75.47
56084;BME280;41958;52.416;13.428;2023-02-21T17:12:32;100941.53;;;9.54;75.93
56084;BME280;41958;52.416;13.428;2023-02-21T17:14:57;100947.50;;;9.43;76.16
56084;BME280;41958;52.416;13.428;2023-02-21T17:17:23;100952.47;;;9.38;75.96
56084;BME280;41958;52.416;13.428;2023-02-21T17:19:48;100952.81;;;9.36;76.59
56084;BME280;41958;52.416;13.428;2023-02-21T17:22:13;100944.47;;;9.27;77.13
56084;BME280;41958;52.416;13.428;2023-02-21T17:24:40;100950.72;;;9.24;76.62
56084;BME280;41958;52.416;13.428;2023-02-21T17:27:05;100961.16;;;9.36;76.36
56084;BME280;41958;52.416;13.428;2023-02-21T17:29:31;100956.25;;;9.33;76.82
56084;BME280;41958;52.416;13.428;2023-02-21T17:31:59;100969.34;;;9.41;76.10
56084;BME280;41958;52.416;13.428;2023-02-21T17:34:35;100970.84;;;9.39;76.42
56084;BME280;41958;52.416;13.428;2023-02-21T17:37:01;100967.56;;;9.37;77.03
56084;BME280;41958;52.416;13.428;2023-02-21T17:39:30;100970.16;;;9.42;76.66
56084;BME280;41958;52.416;13.428;2023-02-21T17:41:55;100975.25;;;9.40;76.82
56084;BME280;41958;52.416;13.428;2023-02-21T17:44:24;100977.72;;;9.41;77.49
56084;BME280;41958;52.416;13.428;2023-02-21T17:46:51;100968.66;;;9.44;76.71
56084;BME280;41958;52.416;13.428;2023-02-21T17:49:20;100977.50;;;9.47;76.90
56084;BME280;41958;52.416;13.428;2023-02-21T17:51:47;100978.03;;;9.40;77.65
56084;BME280;41958;52.416;13.428;2023-02-21T17:54:18;100971.19;;;9.37;77.56
56084;BME280;41958;52.416;13.428;2023-02-21T17:56:43;100985.78;;;9.34;77.90
56084;BME280;41958;52.416;13.428;2023-02-21T17:59:09;100991.50;;;9.38;77.77
56084;BME280;41958;52.416;13.428;2023-02-21T18:01:38;100988.22;;;9.36;77.71
56084;BME280;41958;52.416;13.428;2023-02-21T18:04:05;100995.59;;;9.40;77.24
56084;BME280;41958;52.416;13.428;2023-02-21T18:06:31;100990.22;;;9.35;77.57
56084;BME280;41958;52.416;13.428;2023-02-21T18:08:56;100997.28;;;9.33;77.92
56084;BME280;41958;52.416;13.428;2023-02-21T18:11:23;100992.84;;;9.32;77.17
56084;BME280;41958;52.416;13.428;2023-02-21T18:13:49;101002.41;;;9.22;78.00
56084;BME280;41958;52.416;13.428;2023-02-21T18:16:15;100996.88;;;9.13;78.28